createdAt,value
2022-09-17T00:00:32.207Z,100042.19
2022-09-17T00:03:35.467Z,100040.31
2022-09-17T00:06:39.345Z,100044.06
2022-09-17T00:09:42.050Z,100036.91
2022-09-17T00:12:44.543Z,100052.78
2022-09-17T00:15:48.419Z,100044.59
2022-09-17T00:18:51.044Z,100050.97
2022-09-17T00:21:54.869Z,100043.84
2022-09-17T00:24:57.353Z,100043.13
2022-09-17T00:28:00.926Z,100051.69
2022-09-17T00:31:08.630Z,100056.63
2022-09-17T00:34:12.130Z,100046.59
2022-09-17T00:37:16.352Z,100044.69
2022-09-17T00:40:20.380Z,100047.78
2022-09-17T00:43:36.281Z,100049.59
2022-09-17T00:46:41.417Z,100053.78
2022-09-17T00:49:44.552Z,100058.44
2022-09-17T00:52:51.742Z,100060.34
2022-09-17T00:55:59.876Z,100062.38
2022-09-17T00:59:03.889Z,100057.16
2022-09-17T01:02:06.674Z,100051.72
2022-09-17T01:05:11.047Z,100062.94
2022-09-17T01:08:28.362Z,100066.16
2022-09-17T01:12:02.457Z,100066.31
2022-09-17T01:15:22.550Z,100076.13
2022-09-17T01:18:38.726Z,100071.88
2022-09-17T01:21:51.395Z,100069.22
2022-09-17T01:25:17.374Z,100063.47
2022-09-17T01:28:42.752Z,100066.13
2022-09-17T01:31:54.159Z,100063.88
2022-09-17T01:35:02.648Z,100066.81
2022-09-17T01:38:13.094Z,100080.88
2022-09-17T01:41:23.713Z,100079.50
2022-09-17T01:44:32.654Z,100076.69
2022-09-17T01:47:39.712Z,100073.56
2022-09-17T01:50:46.998Z,100077.47
2022-09-17T01:53:57.898Z,100081.84
2022-09-17T01:57:05.394Z,100089.09
2022-09-17T02:00:11.197Z,100085.88
2022-09-17T02:03:21.951Z,100088.72
2022-09-17T02:06:30.750Z,100085.47
2022-09-17T02:09:38.599Z,100087.63
2022-09-17T02:12:46.494Z,100090.97
2022-09-17T02:15:54.486Z,100091.44
2022-09-17T02:19:06.780Z,100088.03
2022-09-17T02:22:19.367Z,100093.69
2022-09-17T02:25:27.440Z,100097.28
2022-09-17T02:28:38.917Z,100089.03
2022-09-17T02:31:42.383Z,100100.47
2022-09-17T02:34:47.462Z,100097.94
2022-09-17T02:37:53.061Z,100096.22
2022-09-17T02:41:02.216Z,100096.78
2022-09-17T02:44:15.262Z,100097.13
2022-09-17T02:47:34.802Z,100100.19
2022-09-17T02:51:04.893Z,100099.06
2022-09-17T02:54:17.862Z,100088.00
2022-09-17T02:57:24.553Z,100088.72
2022-09-17T03:00:28.428Z,100095.25
2022-09-17T03:03:38.253Z,100085.56
2022-09-17T03:06:43.177Z,100098.16
2022-09-17T03:09:45.933Z,100093.22
2022-09-17T03:12:48.430Z,100097.03
2022-09-17T03:15:50.947Z,100092.81
2022-09-17T03:18:53.513Z,100095.88
2022-09-17T03:21:57.370Z,100091.41
2022-09-17T03:24:59.845Z,100090.91
2022-09-17T03:28:02.793Z,100089.66
2022-09-17T03:31:06.340Z,100088.06
2022-09-17T03:34:09.901Z,100093.97
2022-09-17T03:37:13.740Z,100079.16
2022-09-17T03:40:16.858Z,100090.38
2022-09-17T03:43:19.403Z,100100.69
2022-09-17T03:46:22.036Z,100102.38
2022-09-17T03:49:24.856Z,100109.78
2022-09-17T03:52:28.653Z,100095.94
2022-09-17T03:55:31.129Z,100104.06
2022-09-17T03:58:34.184Z,100104.63
2022-09-17T04:01:37.061Z,100104.34
2022-09-17T04:04:39.602Z,100107.69
2022-09-17T04:07:43.431Z,100101.38
2022-09-17T04:10:45.932Z,100107.59
2022-09-17T04:13:48.573Z,100108.75
2022-09-17T04:16:51.186Z,100116.56
2022-09-17T04:19:53.937Z,100109.41
2022-09-17T04:22:57.827Z,100112.81
2022-09-17T04:26:00.346Z,100115.66
2022-09-17T04:29:02.834Z,100121.19
2022-09-17T04:32:05.562Z,100119.28
2022-09-17T04:35:08.669Z,100122.97
2022-09-17T04:38:13.691Z,100122.75
2022-09-17T04:41:16.293Z,100128.22
2022-09-17T04:44:19.276Z,100128.81
2022-09-17T04:47:21.787Z,100129.25
2022-09-17T04:50:24.402Z,100132.81
2022-09-17T04:53:28.254Z,100138.59
2022-09-17T04:56:30.812Z,100154.31
2022-09-17T04:59:33.306Z,100143.44
2022-09-17T05:02:35.801Z,100147.56
2022-09-17T05:05:38.310Z,100153.94
2022-09-17T05:08:42.201Z,100152.97
2022-09-17T05:11:45.028Z,100138.09
2022-09-17T05:14:47.488Z,100140.78
2022-09-17T05:17:49.987Z,100149.63
2022-09-17T05:20:52.803Z,100147.25
2022-09-17T05:23:56.632Z,100150.38
2022-09-17T05:26:59.107Z,100154.19
2022-09-17T05:30:01.658Z,100150.16
2022-09-17T05:33:06.952Z,100160.38
2022-09-17T05:36:09.819Z,100156.94
2022-09-17T05:39:13.638Z,100158.38
2022-09-17T05:42:16.142Z,100165.41
2022-09-17T05:45:18.657Z,100163.38
2022-09-17T05:48:21.155Z,100160.88
2022-09-17T05:51:23.862Z,100172.28
2022-09-17T05:54:28.084Z,100164.75
2022-09-17T05:57:31.045Z,100165.44
2022-09-17T06:00:33.524Z,100175.66
2022-09-17T06:03:36.112Z,100177.78
2022-09-17T06:06:39.128Z,100175.13
2022-09-17T06:09:42.948Z,100179.41
2022-09-17T06:12:45.415Z,100178.91
2022-09-17T06:15:51.609Z,100185.25
2022-09-17T06:18:54.142Z,100178.97
2022-09-17T06:21:56.627Z,100191.31
2022-09-17T06:25:02.221Z,100197.31
2022-09-17T06:28:05.130Z,100198.94
2022-09-17T06:31:09.647Z,100191.69
2022-09-17T06:34:12.513Z,100189.41
2022-09-17T06:37:15.141Z,100207.03
2022-09-17T06:40:19.097Z,100199.88
2022-09-17T06:43:22.638Z,100201.75
2022-09-17T06:46:25.340Z,100202.72
2022-09-17T06:49:28.789Z,100199.84
2022-09-17T06:52:31.272Z,100198.56
2022-09-17T06:55:35.118Z,100202.34
2022-09-17T06:58:38.714Z,100190.31
2022-09-17T07:01:41.226Z,100202.34
2022-09-17T07:04:43.731Z,100199.91
2022-09-17T07:07:46.211Z,100195.44
2022-09-17T07:10:50.346Z,100210.75
2022-09-17T07:13:52.918Z,100201.06
2022-09-17T07:16:55.381Z,100202.09
2022-09-17T07:19:57.868Z,100202.47
2022-09-17T07:23:00.344Z,100200.38
2022-09-17T07:26:06.901Z,100204.19
2022-09-17T07:29:09.762Z,100188.19
2022-09-17T07:32:12.234Z,100200.28
2022-09-17T07:35:14.934Z,100203.41
2022-09-17T07:38:17.409Z,100203.00
2022-09-17T07:41:21.240Z,100210.97
2022-09-17T07:44:23.802Z,100208.91
2022-09-17T07:47:26.313Z,100214.44
2022-09-17T07:50:28.881Z,100218.94
2022-09-17T07:53:31.348Z,100225.63
2022-09-17T07:56:35.527Z,100219.31
2022-09-17T07:59:37.989Z,100219.06
2022-09-17T08:02:40.579Z,100204.50
2022-09-17T08:05:43.274Z,100211.59
2022-09-17T08:08:45.849Z,100209.09
2022-09-17T08:11:56.051Z,100208.06
2022-09-17T08:14:59.042Z,100206.00
2022-09-17T08:18:01.517Z,100203.22
2022-09-17T08:21:06.207Z,100203.44
2022-09-17T08:24:08.807Z,100211.34
2022-09-17T08:27:12.617Z,100196.09
2022-09-17T08:30:15.175Z,100203.66
2022-09-17T08:33:18.444Z,100206.38
2022-09-17T08:36:22.592Z,100211.19
2022-09-17T08:39:25.263Z,100213.00
2022-09-17T08:42:38.452Z,100196.13
2022-09-17T08:45:40.974Z,100205.53
2022-09-17T08:48:46.128Z,100201.28
2022-09-17T08:52:02.934Z,100189.72
2022-09-17T08:55:15.170Z,100215.81
2022-09-17T08:58:42.674Z,100197.44
2022-09-17T09:01:59.876Z,100205.88
2022-09-17T09:05:13.254Z,100188.84
2022-09-17T09:08:23.411Z,100187.91
2022-09-17T09:11:28.086Z,100188.84
2022-09-17T09:14:36.448Z,100183.19
2022-09-17T09:17:42.290Z,100192.50
2022-09-17T09:20:51.644Z,100187.03
2022-09-17T09:23:58.423Z,100192.50
2022-09-17T09:27:12.475Z,100192.16
2022-09-17T09:30:23.417Z,100187.53
2022-09-17T09:33:29.573Z,100184.78
2022-09-17T09:36:34.054Z,100184.47
2022-09-17T09:39:42.526Z,100201.38
2022-09-17T09:42:49.644Z,100199.19
2022-09-17T09:46:11.474Z,100196.28
2022-09-17T09:49:27.190Z,100205.31
2022-09-17T09:52:42.016Z,100199.13
2022-09-17T09:56:00.287Z,100204.28
2022-09-17T09:59:02.781Z,100204.38
2022-09-17T10:02:06.694Z,100204.22
2022-09-17T10:05:09.926Z,100197.44
2022-09-17T10:08:13.831Z,100201.28
2022-09-17T10:11:22.074Z,100197.22
2022-09-17T10:14:26.361Z,100205.53
2022-09-17T10:17:30.235Z,100209.59
2022-09-17T10:20:33.088Z,100205.13
2022-09-17T10:23:39.522Z,100193.78
2022-09-17T10:26:42.069Z,100198.69
2022-09-17T10:29:47.039Z,100199.09
2022-09-17T10:33:16.970Z,100205.09
2022-09-17T10:36:38.192Z,100201.47
2022-09-17T10:39:44.390Z,100197.16
2022-09-17T10:42:47.042Z,100201.00
2022-09-17T10:45:58.981Z,100200.91
2022-09-17T10:49:12.085Z,100185.56
2022-09-17T10:52:24.880Z,100205.38
2022-09-17T10:55:33.310Z,100188.22
2022-09-17T10:58:57.781Z,100195.16
2022-09-17T11:02:14.891Z,100195.44
2022-09-17T11:05:41.074Z,100185.50
2022-09-17T11:08:51.075Z,100179.97
2022-09-17T11:12:13.320Z,100174.75
2022-09-17T11:15:31.170Z,100172.41
2022-09-17T11:18:40.529Z,100174.75
2022-09-17T11:21:49.926Z,100177.22
2022-09-17T11:25:08.818Z,100180.91
2022-09-17T11:28:29.853Z,100178.22
2022-09-17T11:31:42.532Z,100171.13
2022-09-17T11:34:53.737Z,100169.66
2022-09-17T11:38:04.773Z,100173.69
2022-09-17T11:41:11.563Z,100171.16
2022-09-17T11:44:18.706Z,100166.97
2022-09-17T11:47:26.808Z,100159.06
2022-09-17T11:50:34.825Z,100173.91
2022-09-17T11:53:44.095Z,100163.19
2022-09-17T11:56:50.094Z,100167.69
2022-09-17T11:59:57.334Z,100158.72
2022-09-17T12:03:06.706Z,100152.19
2022-09-17T12:06:14.489Z,100153.41
2022-09-17T12:09:22.331Z,100153.59
2022-09-17T12:12:48.360Z,100139.97
2022-09-17T12:15:53.832Z,100160.41
2022-09-17T12:19:04.186Z,100156.06
2022-09-17T12:22:11.917Z,100147.97
2022-09-17T12:25:15.930Z,100139.03
2022-09-17T12:28:26.809Z,100133.69
2022-09-17T12:31:37.099Z,100146.66
2022-09-17T12:34:51.261Z,100139.84
2022-09-17T12:38:09.927Z,100135.88
2022-09-17T12:41:20.237Z,100131.91
2022-09-17T12:44:56.258Z,100127.41
2022-09-17T12:48:23.890Z,100129.09
2022-09-17T12:51:46.025Z,100123.47
2022-09-17T12:55:27.888Z,100124.63
2022-09-17T12:58:45.962Z,100129.25
2022-09-17T13:01:55.115Z,100126.13
2022-09-17T13:05:20.162Z,100121.69
2022-09-17T13:08:48.475Z,100120.41
2022-09-17T13:12:07.354Z,100126.50
2022-09-17T13:15:38.137Z,100115.34
2022-09-17T13:18:53.894Z,100109.81
2022-09-17T13:22:16.198Z,100099.88
2022-09-17T13:25:20.941Z,100101.69
2022-09-17T13:28:37.990Z,100094.34
2022-09-17T13:31:51.373Z,100079.56
2022-09-17T13:34:53.905Z,100084.94
2022-09-17T13:37:58.863Z,100091.94
2022-09-17T13:41:20.904Z,100094.78
2022-09-17T13:44:24.639Z,100092.25
2022-09-17T13:47:31.828Z,100085.50
2022-09-17T13:50:36.124Z,100085.97
2022-09-17T13:53:38.888Z,100090.84
2022-09-17T13:56:45.924Z,100088.53
2022-09-17T13:59:57.245Z,100085.44
2022-09-17T14:03:44.410Z,100100.50
2022-09-17T14:06:54.798Z,100091.88
2022-09-17T14:09:58.595Z,100085.59
2022-09-17T14:13:28.863Z,100085.03
2022-09-17T14:16:47.908Z,100087.34
2022-09-17T14:19:55.313Z,100093.75
2022-09-17T14:23:01.543Z,100099.09
2022-09-17T14:26:09.158Z,100106.81
2022-09-17T14:29:30.052Z,100132.28
2022-09-17T14:32:39.423Z,100147.28
2022-09-17T14:35:44.672Z,100146.66
2022-09-17T14:38:52.278Z,100131.66
2022-09-17T14:41:56.352Z,100128.03
2022-09-17T14:45:02.527Z,100123.59
2022-09-17T14:48:31.460Z,100106.19
2022-09-17T14:51:33.935Z,100107.34
2022-09-17T14:54:37.757Z,100114.84
2022-09-17T14:57:40.277Z,100119.69
2022-09-17T15:00:52.808Z,100122.47
2022-09-17T15:04:21.075Z,100125.84
2022-09-17T15:07:24.318Z,100131.19
2022-09-17T15:10:28.201Z,100156.38
2022-09-17T15:13:32.901Z,100144.78
2022-09-17T15:16:36.747Z,100149.47
2022-09-17T15:19:42.598Z,100138.09
2022-09-17T15:22:51.003Z,100137.69
2022-09-17T15:25:59.384Z,100143.41
2022-09-17T15:29:04.353Z,100147.22
2022-09-17T15:32:07.069Z,100141.31
2022-09-17T15:35:29.178Z,100139.50
2022-09-17T15:38:32.914Z,100138.75
2022-09-17T15:41:37.422Z,100140.28
2022-09-17T15:44:39.935Z,100142.03
2022-09-17T15:48:01.547Z,100146.97
2022-09-17T15:51:06.855Z,100153.78
2022-09-17T15:54:30.027Z,100155.31
2022-09-17T15:57:34.110Z,100163.81
2022-09-17T16:00:36.673Z,100158.53
2022-09-17T16:04:26.719Z,100171.56
2022-09-17T16:07:31.265Z,100163.13
2022-09-17T16:10:33.722Z,100163.88
2022-09-17T16:13:37.557Z,100167.50
2022-09-17T16:16:40.110Z,100161.53
2022-09-17T16:19:42.752Z,100168.28
2022-09-17T16:22:47.839Z,100175.44
2022-09-17T16:25:50.982Z,100175.31
2022-09-17T16:28:57.856Z,100183.22
2022-09-17T16:32:00.388Z,100182.81
2022-09-17T16:35:02.865Z,100185.22
2022-09-17T16:38:05.659Z,100181.84
2022-09-17T16:41:08.633Z,100178.56
2022-09-17T16:44:12.432Z,100185.78
2022-09-17T16:47:14.967Z,100184.47
2022-09-17T16:50:19.038Z,100190.25
2022-09-17T16:53:21.721Z,100197.41
2022-09-17T16:56:24.388Z,100185.63
2022-09-17T16:59:28.215Z,100192.31
2022-09-17T17:02:30.747Z,100195.56
2022-09-17T17:05:37.773Z,100203.13
2022-09-17T17:08:40.256Z,100204.50
2022-09-17T17:11:42.770Z,100207.75
2022-09-17T17:14:49.984Z,100205.28
2022-09-17T17:17:52.802Z,100212.53
2022-09-17T17:20:55.293Z,100213.25
2022-09-17T17:23:57.773Z,100217.00
2022-09-17T17:27:00.314Z,100219.69
2022-09-17T17:30:06.622Z,100215.88
2022-09-17T17:33:09.138Z,100219.97
2022-09-17T17:36:12.247Z,100224.91
2022-09-17T17:39:14.725Z,100228.34
2022-09-17T17:42:17.281Z,100236.91
2022-09-17T17:45:21.159Z,100236.72
2022-09-17T17:48:23.657Z,100236.69
2022-09-17T17:51:27.176Z,100236.72
2022-09-17T17:54:29.698Z,100240.25
2022-09-17T17:57:32.300Z,100248.13
2022-09-17T18:00:36.267Z,100254.06
2022-09-17T18:03:38.791Z,100252.31
2022-09-17T18:06:41.311Z,100260.16
2022-09-17T18:09:44.484Z,100271.75
2022-09-17T18:12:50.523Z,100271.94
2022-09-17T18:15:56.600Z,100277.66
2022-09-17T18:18:59.330Z,100274.72
2022-09-17T18:22:01.804Z,100280.72
2022-09-17T18:25:04.587Z,100279.94
2022-09-17T18:28:07.087Z,100278.13
2022-09-17T18:31:19.493Z,100278.53
2022-09-17T18:34:22.032Z,100277.78
2022-09-17T18:37:24.503Z,100284.03
2022-09-17T18:40:27.032Z,100280.88
2022-09-17T18:43:29.516Z,100283.38
2022-09-17T18:46:33.411Z,100278.16
2022-09-17T18:49:35.958Z,100281.09
2022-09-17T18:52:38.437Z,100290.78
2022-09-17T18:55:40.903Z,100298.59
2022-09-17T18:58:43.655Z,100293.94
2022-09-17T19:01:48.283Z,100304.50
2022-09-17T19:04:50.814Z,100310.78
2022-09-17T19:07:53.997Z,100316.50
2022-09-17T19:10:57.815Z,100320.81
2022-09-17T19:14:00.878Z,100316.31
2022-09-17T19:17:04.713Z,100326.19
2022-09-17T19:20:08.165Z,100322.41
2022-09-17T19:23:10.682Z,100317.25
2022-09-17T19:26:15.908Z,100332.22
2022-09-17T19:29:18.380Z,100337.03
2022-09-17T19:32:22.416Z,100337.44
2022-09-17T19:35:25.297Z,100348.69
2022-09-17T19:38:28.294Z,100340.47
2022-09-17T19:41:33.197Z,100341.91
2022-09-17T19:44:35.711Z,100345.38
2022-09-17T19:47:39.523Z,100346.91
2022-09-17T19:50:51.343Z,100341.75
2022-09-17T19:53:54.162Z,100347.06
2022-09-17T19:56:56.668Z,100350.34
2022-09-17T19:59:59.186Z,100338.81
2022-09-17T20:03:03.388Z,100352.91
2022-09-17T20:06:08.510Z,100351.09
2022-09-17T20:09:11.242Z,100348.63
2022-09-17T20:12:13.724Z,100352.78
2022-09-17T20:15:16.507Z,100356.25
2022-09-17T20:18:23.503Z,100349.94
2022-09-17T20:21:28.087Z,100353.91
2022-09-17T20:24:30.860Z,100359.66
2022-09-17T20:27:33.367Z,100351.97
2022-09-17T20:30:35.845Z,100360.38
2022-09-17T20:33:39.923Z,100348.97
2022-09-17T20:36:42.389Z,100355.50
2022-09-17T20:39:45.190Z,100356.75
2022-09-17T20:42:47.789Z,100364.13
2022-09-17T20:45:56.424Z,100360.22
2022-09-17T20:49:00.250Z,100367.75
2022-09-17T20:52:03.180Z,100372.75
2022-09-17T20:55:06.394Z,100380.78
2022-09-17T20:58:09.729Z,100386.47
2022-09-17T21:01:14.867Z,100381.59
2022-09-17T21:04:20.304Z,100397.84
2022-09-17T21:07:22.983Z,100394.19
2022-09-17T21:10:25.469Z,100395.75
2022-09-17T21:13:27.971Z,100399.84
2022-09-17T21:16:31.287Z,100400.41
2022-09-17T21:19:35.155Z,100407.25
2022-09-17T21:22:37.619Z,100398.31
2022-09-17T21:25:40.097Z,100408.59
2022-09-17T21:28:44.684Z,100407.75
2022-09-17T21:31:47.323Z,100413.25
2022-09-17T21:34:51.249Z,100421.47
2022-09-17T21:37:53.787Z,100426.16
2022-09-17T21:40:57.179Z,100418.91
2022-09-17T21:44:00.068Z,100414.75
2022-09-17T21:47:02.593Z,100414.97
2022-09-17T21:50:07.511Z,100419.47
2022-09-17T21:53:10.022Z,100419.81
2022-09-17T21:56:14.633Z,100425.13
2022-09-17T21:59:17.653Z,100434.31
2022-09-17T22:02:20.221Z,100430.75
2022-09-17T22:05:24.361Z,100431.09
2022-09-17T22:08:26.852Z,100430.59
2022-09-17T22:11:31.830Z,100435.38
2022-09-17T22:14:34.390Z,100425.97
2022-09-17T22:17:37.059Z,100429.91
2022-09-17T22:20:41.367Z,100427.78
2022-09-17T22:23:44.008Z,100430.59
2022-09-17T22:26:50.788Z,100428.66
2022-09-17T22:29:56.801Z,100426.03
2022-09-17T22:32:59.292Z,100428.56
2022-09-17T22:36:08.640Z,100430.59
2022-09-17T22:39:11.180Z,100423.72
2022-09-17T22:42:13.682Z,100433.00
2022-09-17T22:45:16.197Z,100428.03
2022-09-17T22:48:18.662Z,100418.75
2022-09-17T22:51:23.165Z,100429.22
2022-09-17T22:54:25.682Z,100425.09
2022-09-17T22:57:28.249Z,100418.91
2022-09-17T23:00:30.720Z,100426.78
2022-09-17T23:03:34.001Z,100420.16
2022-09-17T23:06:39.388Z,100426.22
2022-09-17T23:09:41.856Z,100422.53
2022-09-17T23:12:44.336Z,100424.41
2022-09-17T23:15:46.932Z,100421.97
2022-09-17T23:18:49.469Z,100424.22
2022-09-17T23:21:53.330Z,100413.41
2022-09-17T23:24:55.814Z,100407.75
2022-09-17T23:27:58.777Z,100409.56
2022-09-17T23:31:07.878Z,100414.44
2022-09-17T23:34:10.690Z,100420.59
2022-09-17T23:37:14.518Z,100419.75
2022-09-17T23:40:18.206Z,100406.03
2022-09-17T23:43:20.750Z,100413.34
2022-09-17T23:46:24.810Z,100410.16
2022-09-17T23:49:27.730Z,100415.31
2022-09-17T23:52:31.562Z,100405.38
2022-09-17T23:55:34.056Z,100403.47
2022-09-17T23:58:36.541Z,100405.94
